sensor_id;sensor_type;location;lat;lon;timestamp;P1;durP1;ratioP1;P2;durP2;ratioP2
78838;SDS011;68405;47.190;27.558;2024-02-23T00:00:00;11.10;;;5.20;;
78838;SDS011;68405;47.190;27.558;2024-02-23T00:05:59;10.30;;;5.80;;
78838;SDS011;68405;47.190;27.558;2024-02-23T00:14:05;7.90;;;5.10;;
78838;SDS011;68405;47.190;27.558;2024-02-23T00:23:16;9.80;;;5.70;;
78838;SDS011;68405;47.190;27.558;2024-02-23T00:26:00;9.20;;;5.90;;
78838;SDS011;68405;47.190;27.558;2024-02-23T00:28:43;10.70;;;5.90;;
78838;SDS011;68405;47.190;27.558;2024-02-23T00:31:20;11.00;;;6.50;;
78838;SDS011;68405;47.190;27.558;2024-02-23T00:39:53;11.50;;;6.70;;
78838;SDS011;68405;47.190;27.558;2024-02-23T00:42:38;10.30;;;6.60;;
78838;SDS011;68405;47.190;27.558;2024-02-23T01:35:56;9.90;;;5.10;;
78838;SDS011;68405;47.190;27.558;2024-02-23T01:44:49;9.20;;;7.00;;
78838;SDS011;68405;47.190;27.558;2024-02-23T01:47:20;11.70;;;6.60;;
78838;SDS011;68405;47.190;27.558;2024-02-23T01:50:16;9.60;;;5.90;;
78838;SDS011;68405;47.190;27.558;2024-02-23T01:52:46;8.60;;;5.00;;
78838;SDS011;68405;47.190;27.558;2024-02-23T01:55:18;11.30;;;6.30;;
78838;SDS011;68405;47.190;27.558;2024-02-23T01:57:49;11.10;;;6.80;;
78838;SDS011;68405;47.190;27.558;2024-02-23T02:00:23;10.90;;;6.70;;
78838;SDS011;68405;47.190;27.558;2024-02-23T02:03:17;10.50;;;6.60;;
78838;SDS011;68405;47.190;27.558;2024-02-23T02:11:18;9.80;;;6.40;;
78838;SDS011;68405;47.190;27.558;2024-02-23T02:16:47;8.90;;;6.20;;
78838;SDS011;68405;47.190;27.558;2024-02-23T02:22:41;13.90;;;6.30;;
78838;SDS011;68405;47.190;27.558;2024-02-23T02:25:31;10.30;;;6.20;;
78838;SDS011;68405;47.190;27.558;2024-02-23T02:28:07;12.20;;;6.50;;
78838;SDS011;68405;47.190;27.558;2024-02-23T02:30:44;12.90;;;6.20;;
78838;SDS011;68405;47.190;27.558;2024-02-23T02:33:38;12.00;;;6.40;;
78838;SDS011;68405;47.190;27.558;2024-02-23T02:36:18;9.50;;;6.40;;
78838;SDS011;68405;47.190;27.558;2024-02-23T02:38:49;11.20;;;6.80;;
78838;SDS011;68405;47.190;27.558;2024-02-23T02:41:20;14.10;;;7.20;;
78838;SDS011;68405;47.190;27.558;2024-02-23T02:44:04;16.00;;;8.20;;
78838;SDS011;68405;47.190;27.558;2024-02-23T02:49:39;9.60;;;5.50;;
78838;SDS011;68405;47.190;27.558;2024-02-23T02:55:10;12.90;;;7.80;;
78838;SDS011;68405;47.190;27.558;2024-02-23T02:57:50;14.40;;;7.90;;
78838;SDS011;68405;47.190;27.558;2024-02-23T03:00:21;12.70;;;6.90;;
78838;SDS011;68405;47.190;27.558;2024-02-23T03:05:41;11.80;;;6.90;;
78838;SDS011;68405;47.190;27.558;2024-02-23T03:08:27;9.00;;;5.10;;
78838;SDS011;68405;47.190;27.558;2024-02-23T03:11:00;12.50;;;6.40;;
78838;SDS011;68405;47.190;27.558;2024-02-23T03:13:33;14.20;;;9.10;;
78838;SDS011;68405;47.190;27.558;2024-02-23T03:16:03;11.80;;;7.30;;
78838;SDS011;68405;47.190;27.558;2024-02-23T03:18:40;14.30;;;8.80;;
78838;SDS011;68405;47.190;27.558;2024-02-23T03:21:14;15.80;;;8.40;;
78838;SDS011;68405;47.190;27.558;2024-02-23T03:24:36;15.00;;;7.80;;
78838;SDS011;68405;47.190;27.558;2024-02-23T03:29:50;11.70;;;7.70;;
78838;SDS011;68405;47.190;27.558;2024-02-23T03:38:33;10.80;;;7.40;;
78838;SDS011;68405;47.190;27.558;2024-02-23T03:41:27;12.60;;;7.30;;
78838;SDS011;68405;47.190;27.558;2024-02-23T03:44:21;12.20;;;6.50;;
78838;SDS011;68405;47.190;27.558;2024-02-23T03:46:52;14.30;;;7.90;;
78838;SDS011;68405;47.190;27.558;2024-02-23T03:49:23;13.30;;;7.60;;
78838;SDS011;68405;47.190;27.558;2024-02-23T03:51:59;9.60;;;5.40;;
78838;SDS011;68405;47.190;27.558;2024-02-23T03:54:29;13.70;;;7.30;;
78838;SDS011;68405;47.190;27.558;2024-02-23T03:56:59;12.10;;;6.50;;
78838;SDS011;68405;47.190;27.558;2024-02-23T03:59:30;14.80;;;9.70;;
78838;SDS011;68405;47.190;27.558;2024-02-23T04:02:00;14.60;;;8.50;;
78838;SDS011;68405;47.190;27.558;2024-02-23T04:04:31;14.70;;;8.00;;
78838;SDS011;68405;47.190;27.558;2024-02-23T04:07:04;16.10;;;8.50;;
78838;SDS011;68405;47.190;27.558;2024-02-23T04:09:34;11.00;;;6.30;;
78838;SDS011;68405;47.190;27.558;2024-02-23T04:12:15;14.10;;;6.50;;
78838;SDS011;68405;47.190;27.558;2024-02-23T04:14:45;18.30;;;10.00;;
78838;SDS011;68405;47.190;27.558;2024-02-23T04:17:17;18.60;;;8.40;;
78838;SDS011;68405;47.190;27.558;2024-02-23T04:19:50;13.90;;;8.20;;
78838;SDS011;68405;47.190;27.558;2024-02-23T04:22:24;14.40;;;8.40;;
78838;SDS011;68405;47.190;27.558;2024-02-23T04:24:57;12.10;;;7.20;;
78838;SDS011;68405;47.190;27.558;2024-02-23T04:27:26;10.10;;;6.30;;
78838;SDS011;68405;47.190;27.558;2024-02-23T04:35:39;12.60;;;7.90;;
78838;SDS011;68405;47.190;27.558;2024-02-23T04:38:18;13.30;;;8.00;;
78838;SDS011;68405;47.190;27.558;2024-02-23T04:44:14;10.90;;;6.30;;
78838;SDS011;68405;47.190;27.558;2024-02-23T04:47:11;9.30;;;6.10;;
78838;SDS011;68405;47.190;27.558;2024-02-23T04:52:42;14.80;;;7.30;;
78838;SDS011;68405;47.190;27.558;2024-02-23T04:55:24;15.40;;;8.80;;
78838;SDS011;68405;47.190;27.558;2024-02-23T05:04:05;12.40;;;8.00;;
78838;SDS011;68405;47.190;27.558;2024-02-23T05:15:33;10.80;;;5.90;;
78838;SDS011;68405;47.190;27.558;2024-02-23T05:23:25;17.30;;;7.20;;
78838;SDS011;68405;47.190;27.558;2024-02-23T05:29:03;13.30;;;6.80;;
78838;SDS011;68405;47.190;27.558;2024-02-23T05:40:23;17.00;;;7.90;;
78838;SDS011;68405;47.190;27.558;2024-02-23T05:45:37;18.90;;;8.60;;
78838;SDS011;68405;47.190;27.558;2024-02-23T06:19:47;14.70;;;7.70;;
78838;SDS011;68405;47.190;27.558;2024-02-23T06:28:36;15.80;;;9.30;;
78838;SDS011;68405;47.190;27.558;2024-02-23T06:31:08;16.70;;;8.70;;
78838;SDS011;68405;47.190;27.558;2024-02-23T06:33:39;16.80;;;8.60;;
78838;SDS011;68405;47.190;27.558;2024-02-23T06:36:08;13.80;;;8.00;;
78838;SDS011;68405;47.190;27.558;2024-02-23T06:38:37;11.20;;;7.00;;
78838;SDS011;68405;47.190;27.558;2024-02-23T06:41:08;15.60;;;8.40;;
78838;SDS011;68405;47.190;27.558;2024-02-23T06:43:38;15.70;;;9.00;;
78838;SDS011;68405;47.190;27.558;2024-02-23T06:46:07;13.10;;;7.70;;
78838;SDS011;68405;47.190;27.558;2024-02-23T06:48:37;19.90;;;10.10;;
78838;SDS011;68405;47.190;27.558;2024-02-23T06:51:06;19.20;;;10.30;;
78838;SDS011;68405;47.190;27.558;2024-02-23T06:53:36;12.70;;;8.40;;
78838;SDS011;68405;47.190;27.558;2024-02-23T06:58:38;12.80;;;9.10;;
78838;SDS011;68405;47.190;27.558;2024-02-23T07:01:13;16.10;;;8.90;;
78838;SDS011;68405;47.190;27.558;2024-02-23T07:18:27;16.20;;;8.60;;
78838;SDS011;68405;47.190;27.558;2024-02-23T07:20:56;15.90;;;9.60;;
78838;SDS011;68405;47.190;27.558;2024-02-23T07:23:28;15.20;;;9.30;;
78838;SDS011;68405;47.190;27.558;2024-02-23T07:26:13;16.50;;;9.60;;
78838;SDS011;68405;47.190;27.558;2024-02-23T07:28:55;18.60;;;9.50;;
78838;SDS011;68405;47.190;27.558;2024-02-23T09:08:29;16.40;;;9.80;;
78838;SDS011;68405;47.190;27.558;2024-02-23T09:11:07;13.10;;;9.40;;
78838;SDS011;68405;47.190;27.558;2024-02-23T09:25:16;13.40;;;8.10;;
78838;SDS011;68405;47.190;27.558;2024-02-23T09:33:25;11.40;;;7.90;;
78838;SDS011;68405;47.190;27.558;2024-02-23T10:07:57;9.50;;;7.20;;
78838;SDS011;68405;47.190;27.558;2024-02-23T10:22:49;6.70;;;5.80;;
78838;SDS011;68405;47.190;27.558;2024-02-23T11:14:34;11.60;;;7.30;;
78838;SDS011;68405;47.190;27.558;2024-02-23T11:17:18;14.40;;;7.00;;
78838;SDS011;68405;47.190;27.558;2024-02-23T11:19:52;10.20;;;7.20;;
78838;SDS011;68405;47.190;27.558;2024-02-23T11:22:26;12.00;;;7.60;;
78838;SDS011;68405;47.190;27.558;2024-02-23T11:25:07;11.10;;;6.50;;
78838;SDS011;68405;47.190;27.558;2024-02-23T11:28:10;9.80;;;7.30;;
78838;SDS011;68405;47.190;27.558;2024-02-23T11:31:12;11.60;;;7.80;;
78838;SDS011;68405;47.190;27.558;2024-02-23T11:36:42;14.10;;;8.00;;
78838;SDS011;68405;47.190;27.558;2024-02-23T11:45:00;10.90;;;7.80;;
78838;SDS011;68405;47.190;27.558;2024-02-23T11:58:45;14.80;;;7.40;;
78838;SDS011;68405;47.190;27.558;2024-02-23T12:01:32;9.30;;;6.00;;
78838;SDS011;68405;47.190;27.558;2024-02-23T12:04:21;11.80;;;6.20;;
78838;SDS011;68405;47.190;27.558;2024-02-23T12:06:52;8.60;;;5.80;;
78838;SDS011;68405;47.190;27.558;2024-02-23T12:09:24;8.60;;;5.60;;
78838;SDS011;68405;47.190;27.558;2024-02-23T12:11:56;8.80;;;6.40;;
78838;SDS011;68405;47.190;27.558;2024-02-23T12:14:26;10.30;;;6.70;;
78838;SDS011;68405;47.190;27.558;2024-02-23T12:17:01;12.00;;;6.90;;
78838;SDS011;68405;47.190;27.558;2024-02-23T12:39:52;9.40;;;6.60;;
78838;SDS011;68405;47.190;27.558;2024-02-23T12:45:23;7.40;;;5.20;;
78838;SDS011;68405;47.190;27.558;2024-02-23T12:53:38;9.30;;;5.80;;
78838;SDS011;68405;47.190;27.558;2024-02-23T13:56:37;11.70;;;7.00;;
78838;SDS011;68405;47.190;27.558;2024-02-23T13:59:06;14.10;;;6.60;;
78838;SDS011;68405;47.190;27.558;2024-02-23T14:01:35;10.10;;;6.30;;
78838;SDS011;68405;47.190;27.558;2024-02-23T14:04:06;8.20;;;5.20;;
78838;SDS011;68405;47.190;27.558;2024-02-23T14:06:35;8.30;;;4.10;;
78838;SDS011;68405;47.190;27.558;2024-02-23T14:09:04;7.40;;;4.90;;
78838;SDS011;68405;47.190;27.558;2024-02-23T14:11:33;11.90;;;5.70;;
78838;SDS011;68405;47.190;27.558;2024-02-23T14:14:02;7.20;;;5.30;;
78838;SDS011;68405;47.190;27.558;2024-02-23T14:16:33;8.30;;;4.90;;
78838;SDS011;68405;47.190;27.558;2024-02-23T14:19:02;6.30;;;4.60;;
78838;SDS011;68405;47.190;27.558;2024-02-23T14:21:31;7.80;;;5.20;;
78838;SDS011;68405;47.190;27.558;2024-02-23T14:24:02;8.80;;;5.30;;
78838;SDS011;68405;47.190;27.558;2024-02-23T14:26:32;9.10;;;4.30;;
78838;SDS011;68405;47.190;27.558;2024-02-23T14:29:01;10.30;;;5.30;;
78838;SDS011;68405;47.190;27.558;2024-02-23T14:31:30;9.30;;;5.20;;
78838;SDS011;68405;47.190;27.558;2024-02-23T14:33:59;9.40;;;5.70;;
78838;SDS011;68405;47.190;27.558;2024-02-23T14:36:28;6.00;;;4.60;;
78838;SDS011;68405;47.190;27.558;2024-02-23T14:39:01;8.10;;;5.00;;
78838;SDS011;68405;47.190;27.558;2024-02-23T14:41:32;12.30;;;6.20;;
78838;SDS011;68405;47.190;27.558;2024-02-23T14:44:01;12.40;;;6.20;;
78838;SDS011;68405;47.190;27.558;2024-02-23T14:46:31;7.70;;;5.20;;
78838;SDS011;68405;47.190;27.558;2024-02-23T14:49:00;11.80;;;6.70;;
78838;SDS011;68405;47.190;27.558;2024-02-23T14:51:29;11.20;;;6.20;;
78838;SDS011;68405;47.190;27.558;2024-02-23T14:53:58;8.10;;;5.30;;
78838;SDS011;68405;47.190;27.558;2024-02-23T14:56:29;7.50;;;5.10;;
78838;SDS011;68405;47.190;27.558;2024-02-23T14:58:59;7.70;;;5.30;;
78838;SDS011;68405;47.190;27.558;2024-02-23T15:01:28;13.30;;;5.20;;
78838;SDS011;68405;47.190;27.558;2024-02-23T15:03:58;9.70;;;5.30;;
78838;SDS011;68405;47.190;27.558;2024-02-23T15:06:27;8.20;;;5.10;;
78838;SDS011;68405;47.190;27.558;2024-02-23T15:08:56;8.50;;;5.60;;
78838;SDS011;68405;47.190;27.558;2024-02-23T15:11:25;9.50;;;5.90;;
78838;SDS011;68405;47.190;27.558;2024-02-23T15:13:54;10.20;;;5.80;;
78838;SDS011;68405;47.190;27.558;2024-02-23T15:16:25;9.00;;;5.40;;
78838;SDS011;68405;47.190;27.558;2024-02-23T15:18:54;9.60;;;5.40;;
78838;SDS011;68405;47.190;27.558;2024-02-23T15:21:23;12.80;;;6.90;;
78838;SDS011;68405;47.190;27.558;2024-02-23T15:23:53;10.80;;;6.50;;
78838;SDS011;68405;47.190;27.558;2024-02-23T15:30:29;12.40;;;7.00;;
78838;SDS011;68405;47.190;27.558;2024-02-23T15:33:03;8.80;;;5.50;;
78838;SDS011;68405;47.190;27.558;2024-02-23T16:21:41;13.30;;;7.40;;
78838;SDS011;68405;47.190;27.558;2024-02-23T16:27:46;16.80;;;8.50;;
78838;SDS011;68405;47.190;27.558;2024-02-23T16:30:43;15.20;;;7.20;;
78838;SDS011;68405;47.190;27.558;2024-02-23T16:33:15;13.20;;;6.70;;
78838;SDS011;68405;47.190;27.558;2024-02-23T16:35:45;14.90;;;7.90;;
78838;SDS011;68405;47.190;27.558;2024-02-23T16:38:18;15.10;;;8.20;;
78838;SDS011;68405;47.190;27.558;2024-02-23T16:40:48;14.50;;;7.70;;
78838;SDS011;68405;47.190;27.558;2024-02-23T16:43:18;13.80;;;8.30;;
78838;SDS011;68405;47.190;27.558;2024-02-23T16:45:48;15.80;;;9.10;;
78838;SDS011;68405;47.190;27.558;2024-02-23T16:48:17;19.20;;;9.40;;
78838;SDS011;68405;47.190;27.558;2024-02-23T16:50:47;16.40;;;10.00;;
78838;SDS011;68405;47.190;27.558;2024-02-23T16:53:17;19.70;;;9.70;;
78838;SDS011;68405;47.190;27.558;2024-02-23T16:55:49;18.10;;;8.30;;
78838;SDS011;68405;47.190;27.558;2024-02-23T16:58:18;16.00;;;9.30;;
78838;SDS011;68405;47.190;27.558;2024-02-23T17:00:49;18.30;;;9.90;;
78838;SDS011;68405;47.190;27.558;2024-02-23T17:03:20;16.60;;;9.60;;
78838;SDS011;68405;47.190;27.558;2024-02-23T17:05:50;24.70;;;10.60;;
78838;SDS011;68405;47.190;27.558;2024-02-23T17:08:20;15.90;;;10.00;;
78838;SDS011;68405;47.190;27.558;2024-02-23T17:10:58;18.60;;;9.50;;
78838;SDS011;68405;47.190;27.558;2024-02-23T17:13:28;17.40;;;8.80;;
78838;SDS011;68405;47.190;27.558;2024-02-23T17:15:58;21.20;;;9.80;;
78838;SDS011;68405;47.190;27.558;2024-02-23T17:18:33;23.60;;;10.30;;
78838;SDS011;68405;47.190;27.558;2024-02-23T17:21:08;17.10;;;9.00;;
78838;SDS011;68405;47.190;27.558;2024-02-23T17:23:41;11.90;;;8.20;;
78838;SDS011;68405;47.190;27.558;2024-02-23T17:41:22;13.30;;;7.90;;
78838;SDS011;68405;47.190;27.558;2024-02-23T17:44:01;14.40;;;8.50;;
78838;SDS011;68405;47.190;27.558;2024-02-23T17:49:35;14.00;;;8.00;;
78838;SDS011;68405;47.190;27.558;2024-02-23T17:52:05;17.10;;;8.80;;
78838;SDS011;68405;47.190;27.558;2024-02-23T17:54:34;18.10;;;8.80;;
78838;SDS011;68405;47.190;27.558;2024-02-23T17:57:06;11.70;;;7.30;;
78838;SDS011;68405;47.190;27.558;2024-02-23T18:02:16;10.10;;;7.00;;
78838;SDS011;68405;47.190;27.558;2024-02-23T18:16:44;13.50;;;7.10;;
78838;SDS011;68405;47.190;27.558;2024-02-23T18:40:26;12.60;;;8.20;;
78838;SDS011;68405;47.190;27.558;2024-02-23T18:42:56;14.10;;;8.00;;
78838;SDS011;68405;47.190;27.558;2024-02-23T18:45:26;11.70;;;6.70;;
78838;SDS011;68405;47.190;27.558;2024-02-23T18:47:55;11.90;;;6.90;;
78838;SDS011;68405;47.190;27.558;2024-02-23T19:02:02;14.20;;;7.00;;
78838;SDS011;68405;47.190;27.558;2024-02-23T21:24:05;24.00;;;13.10;;
78838;SDS011;68405;47.190;27.558;2024-02-23T21:30:41;17.40;;;11.10;;
78838;SDS011;68405;47.190;27.558;2024-02-23T21:37:44;23.90;;;12.80;;
78838;SDS011;68405;47.190;27.558;2024-02-23T21:40:48;22.40;;;13.20;;
78838;SDS011;68405;47.190;27.558;2024-02-23T21:46:19;23.10;;;13.30;;
78838;SDS011;68405;47.190;27.558;2024-02-23T21:59:08;22.10;;;13.50;;
78838;SDS011;68405;47.190;27.558;2024-02-23T22:05:00;22.80;;;12.60;;
78838;SDS011;68405;47.190;27.558;2024-02-23T22:07:30;22.90;;;13.50;;
78838;SDS011;68405;47.190;27.558;2024-02-23T22:10:00;22.30;;;12.50;;
78838;SDS011;68405;47.190;27.558;2024-02-23T22:12:30;24.80;;;13.70;;
78838;SDS011;68405;47.190;27.558;2024-02-23T22:14:59;24.90;;;13.20;;
78838;SDS011;68405;47.190;27.558;2024-02-23T22:17:30;22.60;;;12.20;;
78838;SDS011;68405;47.190;27.558;2024-02-23T22:20:04;18.50;;;10.80;;
78838;SDS011;68405;47.190;27.558;2024-02-23T22:22:35;21.10;;;12.70;;
78838;SDS011;68405;47.190;27.558;2024-02-23T22:25:04;18.80;;;11.40;;
78838;SDS011;68405;47.190;27.558;2024-02-23T22:27:35;21.30;;;12.00;;
78838;SDS011;68405;47.190;27.558;2024-02-23T22:30:06;26.30;;;15.40;;
78838;SDS011;68405;47.190;27.558;2024-02-23T22:32:39;18.40;;;11.80;;
78838;SDS011;68405;47.190;27.558;2024-02-23T22:53:38;18.30;;;12.40;;
78838;SDS011;68405;47.190;27.558;2024-02-23T23:06:06;17.90;;;10.30;;
78838;SDS011;68405;47.190;27.558;2024-02-23T23:08:36;24.00;;;13.50;;
78838;SDS011;68405;47.190;27.558;2024-02-23T23:11:08;24.00;;;11.80;;
78838;SDS011;68405;47.190;27.558;2024-02-23T23:13:49;21.60;;;13.00;;
78838;SDS011;68405;47.190;27.558;2024-02-23T23:22:31;17.30;;;9.60;;
78838;SDS011;68405;47.190;27.558;2024-02-23T23:25:20;20.40;;;12.90;;
78838;SDS011;68405;47.190;27.558;2024-02-23T23:27:52;22.80;;;13.80;;
78838;SDS011;68405;47.190;27.558;2024-02-23T23:30:26;20.70;;;13.20;;
78838;SDS011;68405;47.190;27.558;2024-02-23T23:32:58;23.70;;;13.50;;
78838;SDS011;68405;47.190;27.558;2024-02-23T23:35:33;18.90;;;12.00;;
78838;SDS011;68405;47.190;27.558;2024-02-23T23:38:04;24.80;;;13.20;;
78838;SDS011;68405;47.190;27.558;2024-02-23T23:40:35;17.00;;;10.30;;
78838;SDS011;68405;47.190;27.558;2024-02-23T23:43:08;26.50;;;15.40;;
78838;SDS011;68405;47.190;27.558;2024-02-23T23:45:41;21.20;;;13.40;;
78838;SDS011;68405;47.190;27.558;2024-02-23T23:48:19;17.80;;;11.40;;
